createdAt,value
2019-04-20T00:01:48.913Z,44.12
2019-04-20T00:04:23.382Z,44.96
2019-04-20T00:06:51.360Z,44.91
2019-04-20T00:09:23.076Z,45.69
2019-04-20T00:12:00.985Z,46.12
2019-04-20T00:14:24.049Z,46.18
2019-04-20T00:16:48.580Z,46.36
2019-04-20T00:19:22.435Z,46.37
2019-04-20T00:21:58.580Z,46.28
2019-04-20T00:24:27.583Z,46.31
2019-04-20T00:27:18.205Z,46.89
2019-04-20T00:29:40.510Z,46.84
2019-04-20T00:32:06.403Z,47.14
2019-04-20T00:34:31.439Z,46.43
2019-04-20T00:36:56.122Z,47.17
2019-04-20T00:39:25.890Z,47.89
2019-04-20T00:42:00.420Z,47.92
2019-04-20T00:44:31.701Z,47.96
2019-04-20T00:47:08.451Z,48.12
2019-04-20T00:49:38.793Z,47.36
2019-04-20T00:52:24.116Z,48.37
2019-04-20T00:54:26.346Z,48.64
2019-04-20T00:57:07.861Z,48.82
2019-04-20T00:59:35.505Z,48.61
2019-04-20T01:02:14.877Z,48.07
2019-04-20T01:04:49.323Z,48.33
2019-04-20T01:07:17.661Z,48.42
2019-04-20T01:09:52.644Z,48.54
2019-04-20T01:12:26.298Z,49.24
2019-04-20T01:14:56.902Z,49.17
2019-04-20T01:17:21.404Z,50.58
2019-04-20T01:19:52.797Z,49.37
2019-04-20T01:22:24.084Z,49.62
2019-04-20T01:24:51.676Z,50.14
2019-04-20T01:27:36.362Z,49.90
2019-04-20T01:29:57.619Z,50.07
2019-04-20T01:32:31.346Z,49.52
2019-04-20T01:35:03.957Z,49.48
2019-04-20T01:37:32.802Z,50.11
2019-04-20T01:39:55.457Z,50.46
2019-04-20T01:42:23.327Z,50.61
2019-04-20T01:44:54.086Z,50.44
2019-04-20T01:47:23.909Z,50.66
2019-04-20T01:49:57.513Z,50.21
2019-04-20T01:52:29.680Z,50.91
2019-04-20T01:55:28.782Z,50.70
2019-04-20T01:58:00.485Z,51.03
2019-04-20T02:00:25.872Z,50.79
2019-04-20T02:02:58.376Z,51.25
2019-04-20T02:05:28.046Z,50.08
2019-04-20T02:07:55.213Z,50.55
2019-04-20T02:10:34.234Z,51.77
2019-04-20T02:12:57.906Z,51.73
2019-04-20T02:15:30.975Z,52.81
2019-04-20T02:18:07.742Z,53.18
2019-04-20T02:20:47.292Z,53.00
2019-04-20T02:23:07.330Z,53.19
2019-04-20T02:25:24.950Z,53.57
2019-04-20T02:28:06.463Z,53.68
2019-04-20T02:31:06.514Z,53.23
2019-04-20T02:33:47.273Z,54.11
2019-04-20T02:36:22.664Z,53.74
2019-04-20T02:41:20.170Z,53.95
2019-04-20T02:46:22.544Z,54.85
2019-04-20T02:48:53.542Z,54.63
2019-04-20T02:51:23.442Z,54.68
2019-04-20T02:54:05.801Z,55.63
2019-04-20T02:56:29.700Z,56.38
2019-04-20T02:59:14.750Z,56.16
2019-04-20T03:01:29.428Z,56.02
2019-04-20T03:03:43.250Z,55.72
2019-04-20T03:06:21.459Z,56.05
2019-04-20T03:08:56.381Z,56.12
2019-04-20T03:11:37.487Z,56.27
2019-04-20T03:13:59.253Z,55.58
2019-04-20T03:16:24.258Z,56.19
2019-04-20T03:18:53.733Z,54.37
2019-04-20T03:21:33.250Z,54.54
2019-04-20T03:24:06.353Z,55.06
2019-04-20T03:26:31.297Z,55.46
2019-04-20T03:29:01.509Z,55.66
2019-04-20T03:32:22.213Z,56.05
2019-04-20T03:36:53.506Z,57.20
2019-04-20T03:39:16.758Z,57.32
2019-04-20T03:41:32.492Z,58.06
2019-04-20T03:44:01.026Z,58.13
2019-04-20T03:46:33.489Z,57.99
2019-04-20T03:49:09.546Z,58.44
2019-04-20T03:51:47.256Z,58.26
2019-04-20T03:54:22.256Z,58.89
2019-04-20T03:56:55.358Z,59.05
2019-04-20T03:59:29.024Z,59.19
2019-04-20T04:02:28.551Z,59.33
2019-04-20T04:04:33.918Z,59.16
2019-04-20T04:06:50.956Z,58.98
2019-04-20T04:09:25.753Z,59.52
2019-04-20T04:12:01.294Z,59.32
2019-04-20T04:14:15.750Z,59.13
2019-04-20T04:16:49.756Z,59.70
2019-04-20T04:19:21.649Z,59.27
2019-04-20T04:22:01.617Z,59.40
2019-04-20T04:24:26.111Z,60.01
2019-04-20T04:26:58.315Z,60.00
2019-04-20T04:29:36.246Z,59.31
2019-04-20T04:32:12.807Z,60.20
2019-04-20T04:34:34.979Z,60.59
2019-04-20T04:37:03.655Z,60.66
2019-04-20T04:39:35.428Z,60.21
2019-04-20T04:42:14.551Z,60.78
2019-04-20T04:44:33.445Z,60.30
2019-04-20T04:46:54.684Z,59.71
2019-04-20T04:49:25.846Z,59.83
2019-04-20T04:51:58.492Z,59.39
2019-04-20T04:54:28.936Z,59.42
2019-04-20T04:56:48.447Z,59.44
2019-04-20T04:59:17.175Z,59.62
2019-04-20T05:01:50.015Z,59.64
2019-04-20T05:04:44.592Z,59.32
2019-04-20T05:07:02.567Z,58.52
2019-04-20T05:09:20.221Z,57.85
2019-04-20T05:11:56.917Z,57.30
2019-04-20T05:14:24.373Z,57.01
2019-04-20T05:17:01.585Z,57.67
2019-04-20T05:19:40.979Z,57.73
2019-04-20T05:22:17.833Z,57.36
2019-04-20T05:24:43.939Z,57.40
2019-04-20T05:27:20.720Z,56.50
2019-04-20T05:29:31.698Z,56.30
2019-04-20T05:32:07.349Z,56.30
2019-04-20T05:34:52.562Z,56.46
2019-04-20T05:37:27.204Z,55.79
2019-04-20T05:39:50.387Z,55.08
2019-04-20T05:42:28.165Z,55.14
2019-04-20T05:44:50.097Z,54.87
2019-04-20T05:47:21.484Z,54.49
2019-04-20T05:49:50.880Z,53.96
2019-04-20T05:52:42.671Z,52.95
2019-04-20T05:54:58.453Z,51.93
2019-04-20T05:57:32.940Z,51.40
2019-04-20T06:02:22.905Z,50.27
2019-04-20T06:07:26.821Z,49.64
2019-04-20T06:09:54.446Z,48.95
2019-04-20T06:12:28.579Z,48.53
2019-04-20T06:14:55.874Z,48.03
2019-04-20T06:17:31.450Z,48.21
2019-04-20T06:20:06.445Z,47.77
2019-04-20T06:22:40.774Z,47.28
2019-04-20T06:25:21.958Z,46.94
2019-04-20T06:27:41.055Z,46.25
2019-04-20T06:30:05.862Z,45.98
2019-04-20T06:33:21.954Z,45.95
2019-04-20T06:35:59.173Z,45.54
2019-04-20T06:38:36.769Z,44.84
2019-04-20T06:40:57.871Z,45.14
2019-04-20T06:43:12.587Z,44.25
2019-04-20T06:45:54.540Z,43.79
2019-04-20T06:48:23.228Z,42.54
2019-04-20T06:50:44.369Z,41.87
2019-04-20T06:53:28.526Z,41.87
2019-04-20T06:55:57.334Z,41.00
2019-04-20T06:58:39.158Z,41.09
2019-04-20T07:00:56.359Z,39.67
2019-04-20T07:03:40.598Z,39.88
2019-04-20T07:05:55.181Z,38.92
2019-04-20T07:08:42.625Z,37.29
2019-04-20T07:10:57.822Z,35.68
2019-04-20T07:13:17.716Z,34.65
2019-04-20T07:15:50.824Z,35.36
2019-04-20T07:18:29.826Z,33.24
2019-04-20T07:21:15.968Z,33.78
2019-04-20T07:26:02.136Z,30.27
2019-04-20T07:28:32.910Z,30.92
2019-04-20T07:30:56.992Z,30.74
2019-04-20T07:33:33.443Z,30.23
2019-04-20T07:35:57.449Z,30.16
2019-04-20T07:38:36.597Z,29.70
2019-04-20T07:41:00.015Z,28.88
2019-04-20T07:43:30.533Z,28.16
2019-04-20T07:46:04.680Z,27.47
2019-04-20T07:48:27.718Z,27.35
2019-04-20T07:50:52.101Z,28.10
2019-04-20T07:53:25.760Z,27.55
2019-04-20T07:56:17.738Z,27.50
2019-04-20T07:58:22.866Z,27.32
2019-04-20T08:01:10.348Z,29.90
2019-04-20T08:03:39.334Z,29.14
2019-04-20T08:05:56.224Z,26.51
2019-04-20T08:08:32.596Z,26.39
2019-04-20T08:10:58.659Z,26.01
2019-04-20T08:13:51.326Z,25.05
2019-04-20T08:16:08.767Z,24.87
2019-04-20T08:18:39.981Z,24.47
2019-04-20T08:21:11.352Z,24.71
2019-04-20T08:23:40.247Z,22.66
2019-04-20T08:25:58.352Z,22.13
2019-04-20T08:28:28.392Z,21.82
2019-04-20T08:31:06.682Z,21.62
2019-04-20T08:33:54.951Z,20.62
2019-04-20T08:36:18.630Z,21.63
2019-04-20T08:39:11.450Z,20.47
2019-04-20T08:41:14.217Z,20.47
2019-04-20T08:46:17.776Z,20.31
2019-04-20T08:48:46.761Z,19.97
2019-04-20T08:51:14.575Z,21.22
2019-04-20T08:53:48.059Z,20.48
2019-04-20T08:56:10.950Z,20.25
2019-04-20T08:58:27.539Z,19.82
2019-04-20T09:01:01.287Z,19.82
2019-04-20T09:03:32.592Z,19.52
2019-04-20T09:06:05.553Z,19.52
2019-04-20T09:08:36.606Z,20.30
2019-04-20T09:11:15.410Z,20.17
2019-04-20T09:13:38.607Z,18.46
2019-04-20T09:15:58.305Z,18.38
2019-04-20T09:18:39.095Z,20.23
2019-04-20T09:21:07.812Z,20.23
2019-04-20T09:23:46.903Z,18.70
2019-04-20T09:26:16.298Z,18.21
2019-04-20T09:28:39.611Z,18.74
2019-04-20T09:31:29.715Z,19.40
2019-04-20T09:33:55.565Z,18.98
2019-04-20T09:36:23.946Z,18.98
2019-04-20T09:39:08.579Z,20.17
2019-04-20T09:41:59.646Z,19.31
2019-04-20T09:44:17.720Z,19.58
2019-04-20T09:46:51.325Z,19.58
2019-04-20T09:49:30.695Z,19.77
2019-04-20T09:52:01.425Z,19.85
2019-04-20T09:54:36.015Z,19.91
2019-04-20T09:57:09.207Z,18.89
2019-04-20T09:59:37.255Z,19.39
2019-04-20T10:01:55.648Z,19.27
2019-04-20T10:04:19.580Z,18.72
2019-04-20T10:06:49.610Z,18.88
2019-04-20T10:09:21.248Z,19.33
2019-04-20T10:11:49.323Z,19.38
2019-04-20T10:14:19.945Z,19.27
2019-04-20T10:16:49.714Z,19.13
2019-04-20T10:19:24.854Z,19.63
2019-04-20T10:21:48.698Z,20.89
2019-04-20T10:24:17.207Z,19.92
2019-04-20T10:26:45.776Z,19.89
2019-04-20T10:29:15.464Z,20.90
2019-04-20T10:31:50.525Z,22.68
2019-04-20T10:34:15.710Z,19.98
2019-04-20T10:36:45.959Z,20.95
2019-04-20T10:39:16.259Z,20.09
2019-04-20T10:41:50.582Z,20.32
2019-04-20T10:44:15.063Z,19.74
2019-04-20T10:46:44.866Z,20.04
2019-04-20T10:49:13.441Z,21.07
2019-04-20T10:51:41.882Z,22.94
2019-04-20T10:54:10.417Z,21.68
2019-04-20T10:56:39.372Z,21.93
2019-04-20T10:59:08.041Z,24.11
2019-04-20T11:01:37.847Z,23.34
2019-04-20T11:04:08.352Z,22.47
2019-04-20T11:06:37.015Z,22.15
2019-04-20T11:09:08.927Z,25.23
2019-04-20T11:11:38.729Z,24.05
2019-04-20T11:14:15.535Z,24.13
2019-04-20T11:16:38.262Z,24.98
2019-04-20T11:19:07.430Z,23.46
2019-04-20T11:21:36.482Z,25.72
2019-04-20T11:24:05.232Z,23.97
2019-04-20T11:26:36.498Z,24.65
2019-04-20T11:29:04.255Z,22.77
2019-04-20T11:31:39.139Z,23.16
2019-04-20T11:34:03.941Z,24.69
2019-04-20T11:36:32.970Z,24.81
2019-04-20T11:39:02.968Z,23.99
2019-04-20T11:41:34.057Z,22.89
2019-04-20T11:44:02.124Z,21.94
2019-04-20T11:46:30.645Z,22.66
2019-04-20T11:48:59.439Z,23.38
2019-04-20T11:51:29.698Z,24.27
2019-04-20T11:53:58.571Z,22.87
2019-04-20T11:56:33.332Z,23.66
2019-04-20T11:58:58.770Z,23.37
2019-04-20T12:01:53.072Z,23.34
2019-04-20T12:04:30.441Z,22.50
2019-04-20T12:06:48.750Z,22.59
2019-04-20T12:09:17.362Z,21.52
2019-04-20T12:11:59.655Z,21.92
2019-04-20T12:14:16.707Z,22.19
2019-04-20T12:16:45.860Z,22.55
2019-04-20T12:19:14.770Z,23.29
2019-04-20T12:21:43.825Z,22.34
2019-04-20T12:24:12.318Z,21.75
2019-04-20T12:26:40.710Z,23.09
2019-04-20T12:29:09.928Z,23.21
2019-04-20T12:31:39.669Z,21.31
2019-04-20T12:34:08.625Z,20.71
2019-04-20T12:36:37.378Z,21.91
2019-04-20T12:39:08.953Z,20.72
2019-04-20T12:41:45.296Z,20.35
2019-04-20T12:44:07.979Z,19.66
2019-04-20T12:46:36.552Z,20.79
2019-04-20T12:49:05.503Z,21.45
2019-04-20T12:51:39.948Z,20.42
2019-04-20T12:54:04.707Z,20.76
2019-04-20T12:56:33.151Z,20.98
2019-04-20T12:59:01.705Z,20.01
2019-04-20T13:01:30.297Z,20.18
2019-04-20T13:03:59.789Z,20.19
2019-04-20T13:06:30.069Z,19.98
2019-04-20T13:09:00.673Z,20.06
2019-04-20T13:11:34.664Z,21.26
2019-04-20T13:14:32.687Z,21.25
2019-04-20T13:17:02.091Z,21.34
2019-04-20T13:19:31.193Z,21.27
2019-04-20T13:22:01.099Z,21.45
2019-04-20T13:24:29.682Z,20.46
2019-04-20T13:26:58.689Z,20.53
2019-04-20T13:29:27.192Z,21.37
2019-04-20T13:31:56.776Z,20.42
2019-04-20T13:34:26.431Z,19.89
2019-04-20T13:36:55.954Z,20.85
2019-04-20T13:39:24.824Z,19.93
2019-04-20T13:42:03.415Z,20.21
2019-04-20T13:44:24.064Z,19.50
2019-04-20T13:46:52.528Z,20.85
2019-04-20T13:49:20.976Z,20.05
2019-04-20T13:51:50.748Z,19.92
2019-04-20T13:54:23.926Z,20.00
2019-04-20T13:56:52.161Z,19.34
2019-04-20T13:59:29.705Z,19.28
2019-04-20T14:02:00.157Z,20.18
2019-04-20T14:04:30.702Z,20.17
2019-04-20T14:06:59.643Z,18.37
2019-04-20T14:09:29.585Z,18.67
2019-04-20T14:12:11.839Z,19.74
2019-04-20T14:14:28.937Z,19.60
2019-04-20T14:16:58.942Z,19.25
2019-04-20T14:19:27.550Z,18.74
2019-04-20T14:21:56.448Z,19.54
2019-04-20T14:24:26.694Z,19.62
2019-04-20T14:26:56.883Z,18.84
2019-04-20T14:29:25.555Z,18.20
2019-04-20T14:31:53.977Z,18.76
2019-04-20T14:34:22.710Z,19.11
2019-04-20T14:36:51.240Z,19.29
2019-04-20T14:39:20.395Z,19.62
2019-04-20T14:41:49.092Z,19.31
2019-04-20T14:44:17.600Z,19.46
2019-04-20T14:46:47.459Z,19.26
2019-04-20T14:49:16.625Z,19.24
2019-04-20T14:51:45.812Z,18.86
2019-04-20T14:54:14.319Z,19.43
2019-04-20T14:56:43.449Z,18.33
2019-04-20T14:59:33.684Z,18.92
2019-04-20T15:02:04.092Z,19.46
2019-04-20T15:04:34.615Z,19.17
2019-04-20T15:07:04.635Z,19.27
2019-04-20T15:09:36.993Z,19.69
2019-04-20T15:12:04.708Z,20.00
2019-04-20T15:14:34.512Z,19.39
2019-04-20T15:17:04.652Z,19.61
2019-04-20T15:19:41.368Z,19.22
2019-04-20T15:22:27.905Z,19.18
2019-04-20T15:24:57.633Z,19.22
2019-04-20T15:27:26.443Z,18.80
2019-04-20T15:29:56.121Z,18.43
2019-04-20T15:32:25.067Z,19.72
2019-04-20T15:34:55.008Z,18.02
2019-04-20T15:37:23.808Z,19.30
2019-04-20T15:39:52.848Z,19.08
2019-04-20T15:42:21.419Z,19.63
2019-04-20T15:44:51.331Z,19.73
2019-04-20T15:47:20.318Z,20.14
2019-04-20T15:49:49.782Z,20.25
2019-04-20T15:52:24.530Z,20.81
2019-04-20T15:54:49.707Z,19.90
2019-04-20T15:57:22.988Z,20.19
2019-04-20T15:59:48.689Z,20.08
2019-04-20T16:02:18.689Z,20.23
2019-04-20T16:04:52.596Z,19.37
2019-04-20T16:07:21.510Z,19.91
2019-04-20T16:09:50.456Z,19.62
2019-04-20T16:12:20.826Z,19.91
2019-04-20T16:14:49.560Z,20.16
2019-04-20T16:17:19.497Z,19.75
2019-04-20T16:19:55.114Z,19.89
2019-04-20T16:22:19.933Z,19.78
2019-04-20T16:24:59.341Z,20.18
2019-04-20T16:27:29.825Z,20.09
2019-04-20T16:29:59.812Z,19.40
2019-04-20T16:32:28.576Z,19.85
2019-04-20T16:34:58.200Z,20.02
2019-04-20T16:37:26.851Z,20.18
2019-04-20T16:39:56.547Z,20.09
2019-04-20T16:42:26.653Z,20.91
2019-04-20T16:44:55.159Z,20.83
2019-04-20T16:47:24.070Z,20.08
2019-04-20T16:49:52.892Z,20.64
2019-04-20T16:52:21.469Z,19.32
2019-04-20T16:54:50.153Z,19.60
2019-04-20T16:57:19.534Z,20.22
2019-04-20T16:59:52.265Z,20.70
2019-04-20T17:02:19.900Z,21.64
2019-04-20T17:04:51.288Z,20.96
2019-04-20T17:07:20.796Z,20.68
2019-04-20T17:09:52.421Z,21.02
2019-04-20T17:12:23.753Z,21.36
2019-04-20T17:14:53.606Z,20.31
2019-04-20T17:17:22.491Z,20.81
2019-04-20T17:19:51.490Z,20.48
2019-04-20T17:22:21.505Z,20.82
2019-04-20T17:24:51.366Z,21.11
2019-04-20T17:27:28.908Z,21.17
2019-04-20T17:30:03.226Z,21.83
2019-04-20T17:32:33.751Z,22.40
2019-04-20T17:35:19.164Z,21.30
2019-04-20T17:37:39.081Z,20.99
2019-04-20T17:40:26.459Z,21.61
2019-04-20T17:42:47.218Z,21.68
2019-04-20T17:45:11.379Z,22.16
2019-04-20T17:47:55.972Z,21.94
2019-04-20T17:50:24.049Z,22.33
2019-04-20T17:52:53.887Z,22.37
2019-04-20T17:55:19.771Z,22.68
2019-04-20T17:57:39.736Z,22.40
2019-04-20T18:00:29.094Z,22.78
2019-04-20T18:03:14.821Z,23.48
2019-04-20T18:05:57.057Z,23.46
2019-04-20T18:08:27.351Z,23.40
2019-04-20T18:10:45.642Z,23.68
2019-04-20T18:13:12.040Z,24.01
2019-04-20T18:15:48.832Z,23.86
2019-04-20T18:18:38.998Z,23.72
2019-04-20T18:20:56.996Z,24.09
2019-04-20T18:23:33.405Z,24.42
2019-04-20T18:26:18.510Z,24.81
2019-04-20T18:28:40.162Z,25.11
2019-04-20T18:31:03.447Z,26.21
2019-04-20T18:33:33.526Z,26.48
2019-04-20T18:36:00.435Z,26.54
2019-04-20T18:38:30.521Z,26.58
2019-04-20T18:41:04.623Z,27.23
2019-04-20T18:43:30.958Z,27.69
2019-04-20T18:46:20.658Z,27.78
2019-04-20T18:48:50.953Z,27.28
2019-04-20T18:51:01.758Z,28.40
2019-04-20T18:53:37.453Z,28.40
2019-04-20T18:56:02.714Z,28.55
2019-04-20T18:58:31.236Z,28.73
2019-04-20T19:01:01.070Z,29.85
2019-04-20T19:03:38.102Z,30.99
2019-04-20T19:06:00.231Z,31.45
2019-04-20T19:08:33.765Z,31.93
2019-04-20T19:11:04.199Z,32.17
2019-04-20T19:13:41.513Z,32.56
2019-04-20T19:16:29.721Z,32.65
2019-04-20T19:19:19.420Z,33.14
2019-04-20T19:21:35.255Z,33.35
2019-04-20T19:24:10.946Z,33.57
2019-04-20T19:26:34.376Z,33.97
2019-04-20T19:29:11.090Z,33.86
2019-04-20T19:31:45.807Z,33.83
2019-04-20T19:34:19.010Z,34.13
2019-04-20T19:36:41.448Z,34.37
2019-04-20T19:39:21.290Z,34.34
2019-04-20T19:41:44.173Z,34.31
2019-04-20T19:44:16.137Z,34.34
2019-04-20T19:47:03.308Z,34.09
2019-04-20T19:49:19.585Z,34.32
2019-04-20T19:52:02.822Z,34.49
2019-04-20T19:54:29.971Z,34.97
2019-04-20T19:56:54.335Z,34.54
2019-04-20T19:59:19.495Z,34.36
2019-04-20T20:01:38.051Z,34.12
2019-04-20T20:04:09.828Z,34.00
2019-04-20T20:06:45.313Z,34.02
2019-04-20T20:09:12.231Z,34.19
2019-04-20T20:11:42.311Z,34.54
2019-04-20T20:14:11.793Z,33.84
2019-04-20T20:17:01.536Z,33.69
2019-04-20T20:19:27.387Z,33.35
2019-04-20T20:21:55.496Z,34.03
2019-04-20T20:24:11.310Z,34.17
2019-04-20T20:26:44.632Z,34.18
2019-04-20T20:29:19.408Z,34.06
2019-04-20T20:31:56.267Z,33.59
2019-04-20T20:34:20.191Z,34.44
2019-04-20T20:36:47.282Z,33.86
2019-04-20T20:39:20.101Z,33.80
2019-04-20T20:41:56.119Z,33.82
2019-04-20T20:44:28.700Z,34.52
2019-04-20T20:46:56.289Z,33.10
2019-04-20T20:49:33.197Z,33.69
2019-04-20T20:52:06.736Z,34.79
2019-04-20T20:54:30.906Z,33.67
2019-04-20T20:56:56.796Z,33.96
2019-04-20T20:59:32.009Z,34.24
2019-04-20T21:01:54.091Z,34.15
2019-04-20T21:04:17.497Z,33.34
2019-04-20T21:06:46.561Z,32.32
2019-04-20T21:09:16.536Z,32.33
2019-04-20T21:11:46.335Z,33.31
2019-04-20T21:14:19.870Z,32.83
2019-04-20T21:16:53.502Z,32.22
2019-04-20T21:19:28.609Z,32.17
2019-04-20T21:21:57.107Z,31.58
2019-04-20T21:24:23.689Z,31.47
2019-04-20T21:26:53.843Z,31.96
2019-04-20T21:29:30.164Z,31.54
2019-04-20T21:32:02.877Z,30.79
2019-04-20T21:34:24.176Z,31.76
2019-04-20T21:36:55.293Z,30.29
2019-04-20T21:39:34.562Z,30.44
2019-04-20T21:42:01.453Z,29.77
2019-04-20T21:44:28.471Z,30.87
2019-04-20T21:46:55.999Z,33.03
2019-04-20T21:49:39.952Z,32.34
2019-04-20T21:52:01.124Z,31.49
2019-04-20T21:54:25.440Z,34.47
2019-04-20T21:57:00.245Z,31.90
2019-04-20T21:59:32.162Z,32.79
2019-04-20T22:02:03.404Z,32.48
2019-04-20T22:04:25.207Z,33.32
2019-04-20T22:06:54.299Z,32.39
2019-04-20T22:09:25.139Z,30.35
2019-04-20T22:11:53.877Z,30.13
2019-04-20T22:14:26.279Z,31.69
2019-04-20T22:16:55.091Z,31.32
2019-04-20T22:19:36.007Z,33.02
2019-04-20T22:22:07.702Z,31.89
2019-04-20T22:24:40.312Z,32.84
2019-04-20T22:27:05.392Z,31.74
2019-04-20T22:29:24.248Z,31.10
2019-04-20T22:32:02.715Z,31.68
2019-04-20T22:34:25.535Z,31.37
2019-04-20T22:36:53.837Z,32.52
2019-04-20T22:39:35.580Z,31.88
2019-04-20T22:42:07.419Z,31.66
2019-04-20T22:44:32.444Z,31.65
2019-04-20T22:47:04.419Z,32.51
2019-04-20T22:49:44.219Z,31.95
2019-04-20T22:52:18.494Z,31.67
2019-04-20T22:54:44.689Z,33.45
2019-04-20T22:57:11.821Z,31.89
2019-04-20T22:59:44.727Z,31.90
2019-04-20T23:02:03.944Z,32.31
2019-04-20T23:04:33.065Z,31.37
2019-04-20T23:07:03.245Z,30.84
2019-04-20T23:09:34.198Z,31.26
2019-04-20T23:12:09.184Z,31.69
2019-04-20T23:14:32.235Z,32.31
2019-04-20T23:17:02.019Z,31.43
2019-04-20T23:19:39.170Z,31.48
2019-04-20T23:22:04.796Z,31.76
2019-04-20T23:24:31.165Z,32.30
2019-04-20T23:27:06.583Z,32.82
2019-04-20T23:29:35.744Z,33.13
2019-04-20T23:32:05.138Z,31.79
2019-04-20T23:34:33.786Z,32.05
2019-04-20T23:37:00.954Z,32.19
2019-04-20T23:39:35.531Z,32.24
2019-04-20T23:42:03.950Z,32.01
2019-04-20T23:44:35.714Z,31.47
2019-04-20T23:47:25.478Z,30.02
2019-04-20T23:50:13.620Z,31.80
2019-04-20T23:52:49.402Z,31.86
2019-04-20T23:55:03.000Z,31.42
2019-04-20T23:57:27.549Z,31.67
2019-04-20T23:59:56.290Z,32.08
